Time;durP1;ratioP1;P1;durP2;ratioP2;P2;SDS_P1;SDS_P2;PMS_P1;PMS_P2;Temp;Humidity;BMP_temperature;BMP_pressure;BME280_temperature;BME280_humidity;BME280_pressure;Samples;Min_cycle;Max_cycle;Signal;HPM_P1;HPM_P2
2021/03/18 00:00:13;;;;;;;6.40;4.00;;;-1.80;99.90;;;;;;2081168;28;20200;-67
2021/03/18 00:01:14;;;;;;;9.32;4.15;;;-1.80;99.90;;;;;;2071588;28;20191;-66
2021/03/18 00:02:15;;;;;;;6.03;3.92;;;-1.80;99.90;;;;;;2072293;28;20184;-67
2021/03/18 00:03:19;;;;;;;6.17;4.30;;;-1.90;99.90;;;;;;2080973;28;20180;-67
2021/03/18 00:04:20;;;;;;;6.72;4.18;;;-1.90;99.90;;;;;;2080321;28;20223;-67
2021/03/18 00:05:23;;;;;;;6.07;4.10;;;-1.90;99.90;;;;;;2072195;28;20649;-67
2021/03/18 00:06:24;;;;;;;5.30;3.50;;;-2.00;99.90;;;;;;2072489;28;20179;-67
2021/03/18 00:07:24;;;;;;;6.17;4.00;;;-2.00;99.90;;;;;;2080060;28;20237;-67
2021/03/18 00:08:25;;;;;;;5.20;4.10;;;-2.00;99.90;;;;;;2072034;28;20730;-67
2021/03/18 00:09:26;;;;;;;5.20;3.67;;;-2.10;99.90;;;;;;2072170;28;20183;-67
2021/03/18 00:10:27;;;;;;;9.13;4.70;;;-2.10;99.90;;;;;;2080502;28;20217;-67
2021/03/18 00:11:28;;;;;;;5.38;3.88;;;-2.20;99.90;;;;;;2071626;28;20272;-67
2021/03/18 00:12:29;;;;;;;9.30;3.93;;;-2.20;99.90;;;;;;2072120;28;20198;-67
2021/03/18 00:13:31;;;;;;;6.63;4.17;;;-2.20;99.90;;;;;;2071923;28;20198;-67
2021/03/18 00:14:32;;;;;;;9.18;4.20;;;-2.30;99.90;;;;;;2072425;28;20698;-67
2021/03/18 00:15:34;;;;;;;5.70;3.80;;;-2.30;99.90;;;;;;2072057;28;20193;-67
2021/03/18 00:16:35;;;;;;;7.60;4.03;;;-2.20;99.90;;;;;;2064304;28;20246;-67
2021/03/18 00:17:37;;;;;;;8.63;3.92;;;-2.20;99.90;;;;;;2072229;28;20211;-67
2021/03/18 00:18:44;;;;;;;5.68;3.58;;;-2.20;99.90;;;;;;2071936;28;20201;-67
2021/03/18 00:19:45;;;;;;;7.10;4.70;;;-2.20;99.90;;;;;;2071975;28;20614;-67
2021/03/18 00:20:46;;;;;;;6.63;4.33;;;-2.10;99.90;;;;;;2072081;28;20178;-67
2021/03/18 00:21:47;;;;;;;6.65;4.57;;;-2.10;99.90;;;;;;2080293;28;20191;-67
2021/03/18 00:22:48;;;;;;;7.93;4.23;;;-2.00;99.90;;;;;;2080899;28;20205;-67
2021/03/18 00:23:50;;;;;;;7.85;4.05;;;-2.00;99.90;;;;;;2080788;28;20186;-67
2021/03/18 00:24:51;;;;;;;7.20;4.63;;;-2.00;99.90;;;;;;2072028;28;20212;-68
2021/03/18 00:25:52;;;;;;;6.30;3.63;;;-1.90;99.90;;;;;;2071984;28;20171;-67
2021/03/18 00:26:53;;;;;;;7.33;3.90;;;-1.90;99.90;;;;;;2080966;28;20642;-67
2021/03/18 00:27:54;;;;;;;4.27;3.40;;;-1.90;99.90;;;;;;2080813;28;20931;-67
2021/03/18 00:28:56;;;;;;;8.55;4.30;;;-1.90;99.90;;;;;;2080074;28;20200;-67
2021/03/18 00:29:57;;;;;;;6.05;4.35;;;-1.90;99.90;;;;;;2079964;28;20180;-66
2021/03/18 00:30:58;;;;;;;8.43;4.20;;;-1.80;99.90;;;;;;2079597;28;20672;-66
2021/03/18 00:31:59;;;;;;;6.65;4.25;;;-1.80;99.90;;;;;;2080667;28;20177;-66
2021/03/18 00:33:00;;;;;;;8.23;4.00;;;-1.80;99.90;;;;;;2080997;28;20175;-67
2021/03/18 00:34:03;;;;;;;4.30;3.70;;;-1.80;99.90;;;;;;2080556;28;20239;-67
2021/03/18 00:35:07;;;;;;;8.98;4.05;;;-1.80;99.90;;;;;;2080710;28;20213;-67
2021/03/18 00:36:08;;;;;;;6.88;4.32;;;-1.70;99.90;;;;;;2080604;28;20661;-67
2021/03/18 00:37:09;;;;;;;7.93;4.10;;;-1.70;99.90;;;;;;2080940;28;20278;-67
2021/03/18 00:38:10;;;;;;;8.10;4.43;;;-1.70;99.90;;;;;;2080034;28;20183;-67
2021/03/18 00:39:11;;;;;;;5.80;3.80;;;-1.70;99.90;;;;;;2071930;28;20569;-66
2021/03/18 00:40:22;;;;;;;5.90;4.13;;;-1.70;99.90;;;;;;2071955;28;20192;-67
2021/03/18 00:41:23;;;;;;;6.32;4.15;;;-1.70;99.90;;;;;;2080091;28;20194;-67
2021/03/18 00:42:24;;;;;;;8.17;4.40;;;-1.70;99.90;;;;;;2071804;28;20205;-67
2021/03/18 00:43:25;;;;;;;5.07;4.03;;;-1.70;99.90;;;;;;2071986;28;20795;-67
2021/03/18 00:44:25;;;;;;;5.47;3.90;;;-1.60;99.90;;;;;;2080687;28;20986;-67
2021/03/18 00:45:31;;;;;;;8.77;4.70;;;-1.60;99.90;;;;;;2080683;28;20185;-66
2021/03/18 00:46:32;;;;;;;6.85;4.40;;;-1.60;99.90;;;;;;2080601;28;20183;-67
2021/03/18 00:47:32;;;;;;;6.55;4.20;;;-1.50;99.90;;;;;;2080693;28;20211;-67
2021/03/18 00:48:35;;;;;;;6.27;4.87;;;-1.40;99.90;;;;;;2080635;28;20681;-67
2021/03/18 00:49:36;;;;;;;6.10;4.18;;;-1.50;99.90;;;;;;2071842;28;20195;-66
2021/03/18 00:50:54;;;;;;;8.57;4.30;;;-1.50;99.90;;;;;;2071930;28;20182;-67
2021/03/18 00:51:55;;;;;;;6.38;3.72;;;-1.60;99.90;;;;;;2079961;28;20181;-67
2021/03/18 00:52:57;;;;;;;7.63;4.43;;;-1.60;99.90;;;;;;2079961;28;20173;-67
2021/03/18 00:53:58;;;;;;;5.97;4.18;;;-1.70;99.90;;;;;;2071889;28;20221;-67
2021/03/18 00:54:58;;;;;;;8.03;4.40;;;-1.70;99.90;;;;;;2071860;28;20209;-67
2021/03/18 00:55:59;;;;;;;6.57;3.93;;;-1.70;99.90;;;;;;2071823;28;20184;-67
2021/03/18 00:57:00;;;;;;;5.13;3.93;;;-1.70;99.90;;;;;;2072017;28;20285;-68
2021/03/18 00:58:01;;;;;;;6.77;4.30;;;-1.70;99.90;;;;;;2082238;28;20786;-67
2021/03/18 00:59:01;;;;;;;6.33;3.80;;;-1.80;99.90;;;;;;2082233;28;20283;-67
2021/03/18 01:00:10;;;;;;;5.57;3.70;;;-1.80;99.90;;;;;;2082269;28;20651;-66
2021/03/18 01:01:13;;;;;;;8.23;3.90;;;-1.90;99.90;;;;;;2081472;28;20190;-66
2021/03/18 01:02:15;;;;;;;5.22;3.35;;;-1.80;99.90;;;;;;2082212;28;20271;-67
2021/03/18 01:03:17;;;;;;;6.28;4.13;;;-1.80;99.90;;;;;;2073362;28;20178;-67
2021/03/18 01:04:17;;;;;;;5.65;3.83;;;-1.90;99.90;;;;;;2065511;28;20190;-67
2021/03/18 01:05:40;;;;;;;4.75;3.83;;;-1.80;99.90;;;;;;2073449;28;20189;-67
2021/03/18 01:06:41;;;;;;;7.53;3.83;;;-1.80;99.90;;;;;;2073473;28;20173;-67
2021/03/18 01:07:43;;;;;;;8.02;4.75;;;-1.80;99.90;;;;;;2073261;28;20189;-67
2021/03/18 01:08:44;;;;;;;9.00;3.95;;;-1.70;99.90;;;;;;2073357;28;20206;-67
2021/03/18 01:09:45;;;;;;;4.38;3.75;;;-1.70;99.90;;;;;;2065190;28;20627;-67
2021/03/18 01:10:54;;;;;;;7.40;3.83;;;-1.60;99.90;;;;;;2073327;28;20190;-68
2021/03/18 01:11:54;;;;;;;5.97;3.70;;;-1.60;99.90;;;;;;2082241;28;20192;-68
2021/03/18 01:12:55;;;;;;;6.67;3.87;;;-1.50;99.90;;;;;;2082098;28;20237;-67
2021/03/18 01:14:03;;;;;;;5.87;4.17;;;-1.50;99.90;;;;;;2082000;28;20206;-68
2021/03/18 01:15:06;;;;;;;5.65;4.32;;;-1.50;99.90;;;;;;2073448;28;20195;-68
2021/03/18 01:16:25;;;;;;;11.93;4.60;;;-1.50;99.90;;;;;;2073458;28;20203;-68
2021/03/18 01:17:26;;;;;;;5.70;3.80;;;-1.50;99.90;;;;;;2073535;28;20170;-68
2021/03/18 01:19:03;;;;;;;6.33;3.90;;;-1.50;99.90;;;;;;2073384;28;20231;-68
2021/03/18 01:20:05;;;;;;;5.72;3.83;;;-1.50;99.90;;;;;;2069733;28;20552;-68
2021/03/18 01:21:08;;;;;;;5.18;3.78;;;-1.50;99.90;;;;;;2073088;28;20192;-68
2021/03/18 01:22:09;;;;;;;7.07;4.00;;;-1.40;99.90;;;;;;2073265;28;20311;-68
2021/03/18 01:23:10;;;;;;;5.27;3.80;;;-1.40;99.90;;;;;;2073591;28;20294;-68
2021/03/18 01:24:12;;;;;;;4.73;3.40;;;-1.30;99.90;;;;;;2082179;28;20239;-68
2021/03/18 01:25:14;;;;;;;6.72;4.30;;;-1.40;99.90;;;;;;2082346;28;20240;-68
2021/03/18 01:26:15;;;;;;;6.50;4.32;;;-1.40;99.90;;;;;;2082113;28;20188;-68
2021/03/18 01:27:15;;;;;;;9.75;4.13;;;-1.40;99.90;;;;;;2081748;28;20210;-68
2021/03/18 01:28:16;;;;;;;7.87;3.90;;;-1.50;99.90;;;;;;2081576;28;20241;-68
2021/03/18 01:29:17;;;;;;;7.17;4.50;;;-1.50;99.90;;;;;;2082340;28;20253;-67
2021/03/18 01:30:23;;;;;;;5.83;4.37;;;-1.60;99.90;;;;;;2082052;28;20186;-67
2021/03/18 01:31:24;;;;;;;6.20;3.75;;;-1.60;99.90;;;;;;2072818;28;20167;-68
2021/03/18 01:32:24;;;;;;;5.50;3.77;;;-1.60;99.90;;;;;;2073591;28;20217;-68
2021/03/18 01:33:26;;;;;;;7.03;4.33;;;-1.60;99.90;;;;;;2082344;28;20177;-68
2021/03/18 01:34:27;;;;;;;9.35;4.93;;;-1.60;99.90;;;;;;2073415;28;20606;-68
2021/03/18 01:35:28;;;;;;;9.10;4.43;;;-1.70;99.90;;;;;;2073378;28;20206;-68
2021/03/18 01:36:32;;;;;;;7.75;4.53;;;-1.70;99.90;;;;;;2081921;28;20183;-68
2021/03/18 01:37:32;;;;;;;7.47;4.70;;;-1.70;99.90;;;;;;2082070;28;20187;-68
2021/03/18 01:38:34;;;;;;;7.20;4.80;;;-1.70;99.90;;;;;;2082074;28;20190;-68
2021/03/18 01:39:35;;;;;;;5.68;4.18;;;-1.70;99.90;;;;;;2082184;28;20207;-67
2021/03/18 01:40:36;;;;;;;6.93;4.37;;;-1.80;99.90;;;;;;2081793;28;20559;-68
2021/03/18 01:41:37;;;;;;;7.53;4.53;;;-1.80;99.90;;;;;;2080872;28;20597;-68
2021/03/18 01:42:40;;;;;;;5.90;4.30;;;-1.80;99.90;;;;;;2081424;28;20185;-68
2021/03/18 01:43:43;;;;;;;7.32;4.30;;;-1.80;99.90;;;;;;2082005;28;20417;-68
2021/03/18 01:44:44;;;;;;;5.85;4.00;;;-1.80;99.90;;;;;;2081804;28;20192;-67
2021/03/18 01:45:44;;;;;;;8.37;5.03;;;-1.80;99.90;;;;;;2081952;28;20170;-67
2021/03/18 01:46:45;;;;;;;7.87;4.43;;;-1.90;99.90;;;;;;2081861;28;20259;-67
2021/03/18 01:47:50;;;;;;;8.60;4.27;;;-1.90;99.90;;;;;;2081919;28;20574;-67
2021/03/18 01:48:51;;;;;;;8.50;4.65;;;-1.90;99.90;;;;;;2081827;28;20266;-67
2021/03/18 01:49:52;;;;;;;6.88;4.45;;;-1.90;99.90;;;;;;2081940;28;20254;-67
2021/03/18 01:50:54;;;;;;;5.73;4.40;;;-1.90;99.90;;;;;;2080524;28;20195;-67
2021/03/18 01:51:56;;;;;;;6.00;4.70;;;-1.90;99.90;;;;;;2069738;28;20189;-67
2021/03/18 01:52:58;;;;;;;7.20;4.90;;;-1.90;99.90;;;;;;2065022;28;20179;-67
2021/03/18 01:53:59;;;;;;;6.28;4.50;;;-1.80;99.90;;;;;;2073616;28;20228;-67
2021/03/18 01:54:59;;;;;;;8.23;4.90;;;-1.80;99.90;;;;;;2073683;28;20210;-66
2021/03/18 01:56:02;;;;;;;8.43;5.27;;;-1.80;99.90;;;;;;2073087;28;20180;-68
2021/03/18 01:57:04;;;;;;;7.40;5.15;;;-1.80;99.90;;;;;;2064841;28;20200;-67
2021/03/18 01:58:09;;;;;;;8.98;4.30;;;-1.80;99.90;;;;;;2064954;28;20749;-67
2021/03/18 01:59:10;;;;;;;9.80;5.95;;;-1.80;99.90;;;;;;2065564;28;20205;-67
2021/03/18 02:00:12;;;;;;;7.37;5.30;;;-1.80;99.90;;;;;;2073690;28;20196;-67
2021/03/18 02:01:16;;;;;;;8.27;4.97;;;-1.80;99.90;;;;;;2072924;28;20185;-67
2021/03/18 02:02:17;;;;;;;7.63;5.25;;;-1.80;99.90;;;;;;2073036;28;20192;-66
2021/03/18 02:03:18;;;;;;;6.95;4.90;;;-1.80;99.90;;;;;;2072839;28;20285;-66
2021/03/18 02:04:18;;;;;;;7.40;5.37;;;-1.80;99.90;;;;;;2073208;28;20703;-67
2021/03/18 02:05:20;;;;;;;7.50;4.90;;;-1.80;99.90;;;;;;2072938;28;20674;-66
2021/03/18 02:06:20;;;;;;;8.10;5.32;;;-1.80;99.90;;;;;;2072891;28;20191;-67
2021/03/18 02:07:21;;;;;;;6.37;4.50;;;-1.70;99.90;;;;;;2073662;28;20187;-68
2021/03/18 02:08:22;;;;;;;7.17;4.53;;;-1.70;99.90;;;;;;2073100;28;20184;-67
2021/03/18 02:09:23;;;;;;;7.47;5.25;;;-1.70;99.90;;;;;;2083128;28;20245;-67
2021/03/18 02:10:27;;;;;;;9.80;4.83;;;-1.70;99.90;;;;;;2083215;28;20186;-67
2021/03/18 02:11:28;;;;;;;7.32;4.35;;;-1.70;99.90;;;;;;2082128;28;20183;-67
2021/03/18 02:12:29;;;;;;;5.80;4.53;;;-1.70;99.90;;;;;;2082229;28;20201;-67
2021/03/18 02:13:30;;;;;;;8.63;5.37;;;-1.70;99.90;;;;;;2079847;28;20185;-67
2021/03/18 02:14:31;;;;;;;9.50;5.13;;;-1.70;99.90;;;;;;2073519;28;20193;-67
2021/03/18 02:15:38;;;;;;;7.40;4.57;;;-1.70;99.90;;;;;;2073532;28;20291;-67
2021/03/18 02:16:42;;;;;;;6.55;4.65;;;-1.60;99.90;;;;;;2073225;28;20240;-67
2021/03/18 02:17:58;;;;;;;7.82;5.05;;;-1.60;99.90;;;;;;2073227;28;20179;-67
2021/03/18 02:19:38;;;;;;;6.55;4.70;;;-1.60;99.90;;;;;;2072967;28;20206;-67
2021/03/18 02:21:01;;;;;;;8.93;4.70;;;-1.60;99.90;;;;;;2073532;28;20567;-67
2021/03/18 02:22:29;;;;;;;7.70;4.90;;;-1.60;99.90;;;;;;2073637;28;20696;-67
2021/03/18 02:23:45;;;;;;;8.52;4.88;;;-1.60;99.90;;;;;;2073053;28;20655;-67
2021/03/18 02:24:46;;;;;;;8.48;5.10;;;-1.60;99.90;;;;;;2072679;28;20272;-67
2021/03/18 02:26:19;;;;;;;7.93;4.50;;;-1.60;99.90;;;;;;2072988;28;20571;-67
2021/03/18 02:28:13;;;;;;;7.78;4.78;;;-1.60;99.90;;;;;;2073577;28;20554;-67
2021/03/18 02:29:59;;;;;;;7.68;4.30;;;-1.70;99.90;;;;;;2073034;28;20176;-67
2021/03/18 02:31:27;;;;;;;7.50;4.60;;;-1.70;99.90;;;;;;2064144;28;20178;-68
2021/03/18 02:33:00;;;;;;;8.80;4.78;;;-1.80;99.90;;;;;;2064615;28;20176;-67
2021/03/18 02:34:46;;;;;;;7.70;4.72;;;-1.90;99.90;;;;;;2069766;28;20178;-67
2021/03/18 02:36:19;;;;;;;8.32;4.45;;;-2.00;99.90;;;;;;2073413;28;20211;-67
2021/03/18 02:37:22;;;;;;;6.75;4.63;;;-2.10;99.90;;;;;;2064426;28;20183;-67
2021/03/18 02:38:31;;;;;;;8.50;4.47;;;-2.10;99.90;;;;;;2064771;28;20187;-67
2021/03/18 02:39:39;;;;;;;8.20;5.38;;;-2.20;99.90;;;;;;2072656;28;20178;-67
2021/03/18 02:40:46;;;;;;;12.63;5.43;;;-2.30;99.90;;;;;;2072648;28;20229;-67
2021/03/18 02:41:56;;;;;;;7.25;4.90;;;-2.30;99.90;;;;;;2072596;28;20170;-67
2021/03/18 02:43:01;;;;;;;7.63;5.47;;;-2.40;99.90;;;;;;2064506;28;20163;-67
2021/03/18 02:44:19;;;;;;;7.32;5.18;;;-2.40;99.90;;;;;;2057306;28;20194;-67
2021/03/18 02:45:25;;;;;;;6.95;4.93;;;-2.40;99.90;;;;;;2058973;28;20181;-67
2021/03/18 02:46:26;;;;;;;8.85;5.20;;;-2.50;99.90;;;;;;2064997;28;20178;-67
2021/03/18 02:47:30;;;;;;;9.52;5.82;;;-2.50;99.90;;;;;;2064456;28;20613;-67
2021/03/18 02:48:35;;;;;;;7.95;5.35;;;-2.50;99.90;;;;;;2056750;28;20217;-67
2021/03/18 02:49:44;;;;;;;11.50;6.25;;;-2.60;99.90;;;;;;2064427;28;20608;-67
2021/03/18 02:50:45;;;;;;;8.05;5.72;;;-2.60;99.90;;;;;;2065348;28;20269;-67
2021/03/18 02:51:47;;;;;;;9.45;5.70;;;-2.60;99.90;;;;;;2063759;28;20265;-67
2021/03/18 02:52:49;;;;;;;7.20;4.88;;;-2.60;99.90;;;;;;2056442;28;20183;-67
2021/03/18 02:53:50;;;;;;;8.80;5.38;;;-2.60;99.90;;;;;;2064705;28;20302;-67
2021/03/18 02:54:58;;;;;;;7.32;5.15;;;-2.60;99.90;;;;;;2072526;28;20184;-67
2021/03/18 02:56:03;;;;;;;9.18;5.60;;;-2.50;99.90;;;;;;2064649;28;20198;-67
2021/03/18 02:57:07;;;;;;;10.73;5.50;;;-2.50;99.90;;;;;;2056973;28;20665;-67
2021/03/18 02:58:08;;;;;;;9.68;5.95;;;-2.40;99.90;;;;;;2056554;28;20546;-67
2021/03/18 02:59:14;;;;;;;9.57;6.00;;;-2.40;99.90;;;;;;2064456;28;20265;-67
2021/03/18 03:00:16;;;;;;;10.13;5.63;;;-2.30;99.90;;;;;;2057225;28;20172;-67
2021/03/18 03:01:19;;;;;;;9.80;5.55;;;-2.30;99.90;;;;;;2063861;28;20217;-67
2021/03/18 03:02:26;;;;;;;12.07;5.97;;;-2.20;99.90;;;;;;2064333;28;20682;-67
2021/03/18 03:03:27;;;;;;;8.48;5.20;;;-2.20;99.90;;;;;;2064270;28;20218;-67
2021/03/18 03:04:30;;;;;;;8.73;5.47;;;-2.10;99.90;;;;;;2064349;28;20183;-67
2021/03/18 03:05:32;;;;;;;11.73;6.10;;;-2.00;99.90;;;;;;2072555;28;20431;-67
2021/03/18 03:06:34;;;;;;;9.85;6.00;;;-2.00;99.90;;;;;;2064246;28;20195;-67
2021/03/18 03:07:35;;;;;;;9.90;5.60;;;-2.00;99.90;;;;;;2056611;28;20183;-67
2021/03/18 03:08:37;;;;;;;11.57;5.90;;;-1.90;99.90;;;;;;2064018;28;20211;-67
2021/03/18 03:09:43;;;;;;;10.23;5.97;;;-1.80;99.90;;;;;;2064608;28;20188;-67
2021/03/18 03:10:47;;;;;;;8.00;5.95;;;-1.80;99.90;;;;;;2072222;28;20191;-67
2021/03/18 03:11:49;;;;;;;8.07;5.13;;;-1.70;99.90;;;;;;2064127;28;20669;-67
2021/03/18 03:12:51;;;;;;;8.50;5.45;;;-1.70;99.90;;;;;;2056510;28;20230;-67
2021/03/18 03:13:53;;;;;;;8.50;5.85;;;-1.70;99.90;;;;;;2064425;28;20178;-67
2021/03/18 03:14:55;;;;;;;9.32;5.43;;;-1.60;99.90;;;;;;2064171;28;20186;-67
2021/03/18 03:15:58;;;;;;;11.00;5.70;;;-1.60;99.90;;;;;;2064846;28;20742;-67
2021/03/18 03:17:01;;;;;;;9.07;5.93;;;-1.50;99.90;;;;;;2072410;28;20205;-67
2021/03/18 03:18:07;;;;;;;12.55;5.88;;;-1.40;99.90;;;;;;2072599;28;20184;-67
2021/03/18 03:19:09;;;;;;;10.23;5.53;;;-1.40;99.90;;;;;;2064337;28;20168;-67
2021/03/18 03:20:13;;;;;;;9.55;6.18;;;-1.30;99.90;;;;;;2063695;28;20247;-67
2021/03/18 03:21:18;;;;;;;9.30;5.80;;;-1.40;99.90;;;;;;2072481;28;20188;-67
2021/03/18 03:22:20;;;;;;;9.73;5.68;;;-1.30;99.90;;;;;;2072796;28;20179;-67
2021/03/18 03:23:24;;;;;;;10.32;5.80;;;-1.30;99.90;;;;;;2072287;28;20178;-67
2021/03/18 03:24:25;;;;;;;9.02;5.93;;;-1.40;99.90;;;;;;2064021;28;20650;-67
2021/03/18 03:25:27;;;;;;;8.27;5.53;;;-1.40;99.90;;;;;;2056229;28;20195;-67
2021/03/18 03:26:28;;;;;;;9.60;6.20;;;-1.20;99.90;;;;;;2056256;28;20182;-67
2021/03/18 03:27:29;;;;;;;11.05;6.20;;;-1.30;99.90;;;;;;2072951;28;20214;-67
2021/03/18 03:28:31;;;;;;;9.77;6.40;;;-1.20;99.90;;;;;;2072145;28;20272;-67
2021/03/18 03:29:35;;;;;;;10.07;6.03;;;-1.10;99.90;;;;;;2064254;28;20650;-67
2021/03/18 03:30:37;;;;;;;11.05;6.13;;;-1.20;99.90;;;;;;2064363;28;20189;-67
2021/03/18 03:31:38;;;;;;;9.23;6.25;;;-1.10;99.90;;;;;;2071794;28;20211;-67
2021/03/18 03:32:40;;;;;;;10.90;5.93;;;-1.10;99.90;;;;;;2072941;28;20270;-67
2021/03/18 03:33:41;;;;;;;9.82;6.40;;;-1.10;99.90;;;;;;2072329;28;20182;-67
2021/03/18 03:34:42;;;;;;;13.13;6.60;;;-1.10;99.90;;;;;;2072156;28;20194;-67
2021/03/18 03:35:44;;;;;;;10.57;6.47;;;-1.10;99.90;;;;;;2072719;28;20184;-67
2021/03/18 03:36:47;;;;;;;10.43;6.05;;;-1.10;99.90;;;;;;2072318;28;20221;-67
2021/03/18 03:37:48;;;;;;;9.85;6.50;;;-1.10;99.90;;;;;;2063988;28;20176;-67
2021/03/18 03:38:50;;;;;;;9.55;6.43;;;-1.10;99.90;;;;;;2064027;28;20216;-67
2021/03/18 03:39:50;;;;;;;10.50;6.68;;;-1.00;99.90;;;;;;2064085;28;20182;-67
2021/03/18 03:40:52;;;;;;;9.87;6.67;;;-1.10;99.90;;;;;;2063340;28;20183;-67
2021/03/18 03:41:52;;;;;;;9.23;6.22;;;-1.00;99.90;;;;;;2072739;28;20686;-67
2021/03/18 03:42:53;;;;;;;9.80;5.90;;;-1.00;99.90;;;;;;2072889;28;20180;-67
2021/03/18 03:43:54;;;;;;;14.73;7.57;;;-1.00;99.90;;;;;;2072931;28;20256;-67
2021/03/18 03:44:55;;;;;;;8.37;6.57;;;-1.10;99.90;;;;;;2072881;28;20171;-67
2021/03/18 03:45:56;;;;;;;10.53;7.30;;;-1.10;99.90;;;;;;2072059;28;20206;-67
2021/03/18 03:46:57;;;;;;;13.73;6.85;;;-1.10;99.90;;;;;;2073732;28;20616;-67
2021/03/18 03:47:57;;;;;;;10.07;7.00;;;-1.10;99.90;;;;;;2078141;28;20187;-67
2021/03/18 03:48:59;;;;;;;14.13;7.67;;;-1.00;99.90;;;;;;2080297;28;20270;-67
2021/03/18 03:49:59;;;;;;;9.85;6.80;;;-1.00;99.90;;;;;;2071653;28;20686;-67
2021/03/18 03:51:02;;;;;;;12.13;7.13;;;-1.00;99.90;;;;;;2071601;28;20784;-67
2021/03/18 03:52:26;;;;;;;10.75;7.50;;;-1.00;99.90;;;;;;2064162;28;20176;-67
2021/03/18 03:53:44;;;;;;;13.15;7.38;;;-1.00;99.90;;;;;;2067349;28;20179;-67
2021/03/18 03:54:59;;;;;;;12.70;7.65;;;-1.00;99.90;;;;;;2066228;28;20182;-67
2021/03/18 03:56:14;;;;;;;14.55;7.38;;;-1.00;99.90;;;;;;2074467;28;20663;-67
2021/03/18 03:57:23;;;;;;;11.10;7.03;;;-1.00;99.90;;;;;;2081084;28;20165;-67
2021/03/18 03:58:46;;;;;;;10.30;6.97;;;-1.00;99.90;;;;;;2072165;28;20212;-67
2021/03/18 03:59:47;;;;;;;13.60;7.18;;;-1.00;99.90;;;;;;2075391;28;20171;-67
2021/03/18 04:00:49;;;;;;;12.35;7.55;;;-1.10;99.90;;;;;;2071937;28;20261;-67
2021/03/18 04:01:56;;;;;;;12.32;7.57;;;-1.10;99.90;;;;;;2072433;28;20648;-67
2021/03/18 04:03:00;;;;;;;12.43;7.75;;;-1.10;99.90;;;;;;2071588;28;20189;-67
2021/03/18 04:04:09;;;;;;;13.38;7.72;;;-1.10;99.90;;;;;;2072663;28;20173;-67
2021/03/18 04:05:13;;;;;;;12.98;7.95;;;-1.00;99.90;;;;;;2080779;28;20179;-67
2021/03/18 04:06:15;;;;;;;13.80;8.15;;;-1.00;99.90;;;;;;2080897;28;20188;-67
2021/03/18 04:07:23;;;;;;;13.23;7.82;;;-1.00;99.90;;;;;;2080677;28;20187;-67
2021/03/18 04:08:27;;;;;;;12.07;7.85;;;-1.10;99.90;;;;;;2063504;28;20193;-67
2021/03/18 04:09:29;;;;;;;11.43;7.05;;;-1.10;99.90;;;;;;2065198;28;20195;-67
2021/03/18 04:10:31;;;;;;;11.95;8.00;;;-1.10;99.90;;;;;;2072229;28;20263;-67
2021/03/18 04:11:40;;;;;;;12.07;7.95;;;-1.00;99.90;;;;;;2063658;28;20656;-67
2021/03/18 04:12:46;;;;;;;17.55;9.00;;;-1.10;99.90;;;;;;2073141;28;20262;-67
2021/03/18 04:13:48;;;;;;;12.25;7.82;;;-1.10;99.90;;;;;;2081060;28;20223;-67
2021/03/18 04:14:55;;;;;;;12.88;7.82;;;-1.10;99.90;;;;;;2071953;28;20192;-67
2021/03/18 04:16:01;;;;;;;15.65;8.02;;;-1.10;99.90;;;;;;2072981;28;20197;-67
2021/03/18 04:17:08;;;;;;;12.63;7.63;;;-1.20;99.90;;;;;;2080716;28;20159;-67
2021/03/18 04:18:11;;;;;;;15.40;7.95;;;-1.20;99.90;;;;;;2072100;28;20176;-67
2021/03/18 04:19:18;;;;;;;14.10;8.57;;;-1.20;99.90;;;;;;2063911;28;20188;-67
2021/03/18 04:20:22;;;;;;;14.90;8.60;;;-1.30;99.90;;;;;;2064957;28;20201;-67
2021/03/18 04:21:24;;;;;;;13.43;8.50;;;-1.30;99.90;;;;;;2063995;28;20627;-67
2021/03/18 04:22:28;;;;;;;16.83;8.43;;;-1.30;99.90;;;;;;2072225;28;20193;-67
2021/03/18 04:23:30;;;;;;;13.90;8.40;;;-1.30;99.90;;;;;;2071979;28;20182;-67
2021/03/18 04:24:32;;;;;;;15.20;8.90;;;-1.20;99.90;;;;;;2071943;28;20238;-67
2021/03/18 04:25:34;;;;;;;14.85;8.88;;;-1.30;99.90;;;;;;2072764;28;20670;-67
2021/03/18 04:26:38;;;;;;;14.50;8.68;;;-1.20;99.90;;;;;;2072194;28;20790;-67
2021/03/18 04:27:40;;;;;;;13.52;8.60;;;-1.20;99.90;;;;;;2080113;28;20202;-67
2021/03/18 04:28:41;;;;;;;14.18;8.85;;;-1.20;99.90;;;;;;2080032;28;20210;-67
2021/03/18 04:29:43;;;;;;;15.80;9.23;;;-1.10;99.90;;;;;;2080549;28;20192;-67
2021/03/18 04:30:44;;;;;;;13.35;8.60;;;-1.10;99.90;;;;;;2071608;28;20194;-67
2021/03/18 04:31:46;;;;;;;15.73;8.93;;;-1.10;99.90;;;;;;2072981;28;20199;-67
2021/03/18 04:32:48;;;;;;;14.18;8.55;;;-1.10;99.90;;;;;;2073432;28;20187;-67
2021/03/18 04:33:49;;;;;;;16.23;8.82;;;-1.10;99.90;;;;;;2073759;28;20190;-67
2021/03/18 04:34:52;;;;;;;13.43;8.57;;;-1.00;99.90;;;;;;2082047;28;20216;-67
2021/03/18 04:35:57;;;;;;;15.32;8.38;;;-1.10;99.90;;;;;;2073426;28;20430;-67
2021/03/18 04:36:57;;;;;;;16.27;9.43;;;-1.10;99.90;;;;;;2073886;28;20256;-67
2021/03/18 04:38:03;;;;;;;13.80;8.73;;;-1.10;99.90;;;;;;2073443;28;20186;-67
2021/03/18 04:39:06;;;;;;;16.20;8.93;;;-1.10;99.90;;;;;;2065954;28;20738;-67
2021/03/18 04:40:11;;;;;;;18.52;9.88;;;-1.20;99.90;;;;;;2073544;28;20297;-67
2021/03/18 04:41:12;;;;;;;14.43;8.82;;;-1.20;99.90;;;;;;2072975;28;20229;-67
2021/03/18 04:42:14;;;;;;;16.03;9.27;;;-1.20;99.90;;;;;;2073587;28;20187;-67
2021/03/18 04:43:15;;;;;;;17.25;10.02;;;-1.10;99.90;;;;;;2073401;28;20199;-67
2021/03/18 04:44:16;;;;;;;17.20;9.40;;;-1.10;99.90;;;;;;2073527;28;20184;-67
2021/03/18 04:45:22;;;;;;;16.45;9.70;;;-1.10;99.90;;;;;;2081777;28;20187;-67
2021/03/18 04:46:27;;;;;;;17.05;9.63;;;-1.10;99.90;;;;;;2081718;28;20598;-67
2021/03/18 04:47:29;;;;;;;14.90;9.32;;;-1.10;99.90;;;;;;2073566;28;20200;-67
2021/03/18 04:48:31;;;;;;;15.63;9.70;;;-1.10;99.90;;;;;;2073637;28;20328;-67
2021/03/18 04:49:33;;;;;;;15.70;9.07;;;-1.10;99.90;;;;;;2073617;28;20716;-67
2021/03/18 04:50:34;;;;;;;15.52;10.02;;;-1.10;99.90;;;;;;2065507;28;20197;-67
2021/03/18 04:51:34;;;;;;;18.40;9.37;;;-1.10;99.90;;;;;;2072723;28;20209;-67
2021/03/18 04:52:35;;;;;;;13.50;9.77;;;-1.10;99.90;;;;;;2082221;28;20689;-67
2021/03/18 04:53:38;;;;;;;16.07;9.37;;;-1.10;99.90;;;;;;2073366;28;20204;-67
2021/03/18 04:54:39;;;;;;;16.20;9.57;;;-1.10;99.90;;;;;;2073636;28;20184;-67
2021/03/18 04:55:40;;;;;;;18.95;10.50;;;-1.10;99.90;;;;;;2073463;28;20222;-67
2021/03/18 04:56:44;;;;;;;15.10;9.88;;;-1.10;99.90;;;;;;2065234;28;20193;-67
2021/03/18 04:58:05;;;;;;;16.55;9.27;;;-1.10;99.90;;;;;;2073788;28;20191;-67
2021/03/18 04:59:08;;;;;;;16.95;8.98;;;-1.00;99.90;;;;;;2073149;28;20705;-67
2021/03/18 05:00:10;;;;;;;14.35;8.77;;;-1.00;99.90;;;;;;2065714;28;20188;-67
2021/03/18 05:01:12;;;;;;;15.85;8.95;;;-1.00;99.90;;;;;;2064772;28;20199;-67
2021/03/18 05:02:13;;;;;;;17.90;9.45;;;-1.00;99.90;;;;;;2065328;28;20225;-67
2021/03/18 05:03:15;;;;;;;14.85;9.15;;;-1.00;99.90;;;;;;2073276;28;20174;-67
2021/03/18 05:04:19;;;;;;;17.00;9.82;;;-1.10;99.90;;;;;;2082425;28;20193;-67
2021/03/18 05:05:21;;;;;;;18.55;9.30;;;-1.00;99.90;;;;;;2081989;28;20184;-67
2021/03/18 05:06:25;;;;;;;14.27;9.35;;;-1.10;99.90;;;;;;2082217;28;20192;-67
2021/03/18 05:07:28;;;;;;;15.55;9.85;;;-1.10;99.90;;;;;;2081890;28;20185;-67
2021/03/18 05:08:32;;;;;;;17.52;9.45;;;-1.10;99.90;;;;;;2073320;28;20211;-67
2021/03/18 05:09:34;;;;;;;15.30;9.18;;;-1.10;99.90;;;;;;2065500;28;20630;-67
2021/03/18 05:10:40;;;;;;;18.38;10.88;;;-1.10;99.90;;;;;;2065594;28;20671;-67
2021/03/18 05:11:42;;;;;;;14.25;8.77;;;-1.00;99.90;;;;;;2073637;28;20168;-67
2021/03/18 05:12:43;;;;;;;14.82;9.45;;;-1.00;99.90;;;;;;2073337;28;20194;-66
2021/03/18 05:13:46;;;;;;;14.93;9.30;;;-1.00;99.90;;;;;;2065486;28;20184;-67
2021/03/18 05:14:47;;;;;;;16.95;9.77;;;-1.00;99.90;;;;;;2071864;28;20189;-67
2021/03/18 05:15:52;;;;;;;16.95;10.40;;;-1.00;99.90;;;;;;2073601;28;20189;-67
2021/03/18 05:16:54;;;;;;;16.17;9.05;;;-1.10;99.90;;;;;;2073847;28;20199;-67
2021/03/18 05:17:55;;;;;;;17.88;10.10;;;-1.00;99.90;;;;;;2073423;28;20221;-67
2021/03/18 05:18:56;;;;;;;19.10;9.98;;;-1.00;99.90;;;;;;2071653;28;20292;-67
2021/03/18 05:19:56;;;;;;;19.87;10.53;;;-1.00;99.90;;;;;;2074185;28;20173;-67
2021/03/18 05:21:02;;;;;;;14.03;9.67;;;-1.10;99.90;;;;;;2073257;28;20172;-67
2021/03/18 05:22:04;;;;;;;17.00;9.80;;;-1.00;99.90;;;;;;2074089;28;20186;-67
2021/03/18 05:23:07;;;;;;;16.02;9.35;;;-0.90;99.90;;;;;;2073454;28;20226;-67
2021/03/18 05:24:10;;;;;;;16.90;10.10;;;-0.90;99.90;;;;;;2073550;28;20262;-67
2021/03/18 05:25:12;;;;;;;14.38;9.15;;;-0.90;99.90;;;;;;2073351;28;20654;-67
2021/03/18 05:26:12;;;;;;;14.95;9.55;;;-0.90;99.90;;;;;;2065199;28;20190;-67
2021/03/18 05:27:13;;;;;;;15.33;9.67;;;-0.90;99.90;;;;;;2065003;28;20199;-67
2021/03/18 05:28:15;;;;;;;14.93;9.30;;;-0.90;99.90;;;;;;2089604;23;20187;-61
2021/03/18 05:29:18;;;;;;;16.60;9.13;;;-0.80;99.90;;;;;;2079871;28;20755;-62
2021/03/18 05:30:19;;;;;;;18.33;10.02;;;-0.80;99.90;;;;;;2082097;28;20199;-62
2021/03/18 05:31:22;;;;;;;16.50;9.68;;;-0.90;99.90;;;;;;2081807;28;20188;-62
2021/03/18 05:32:22;;;;;;;14.85;9.55;;;-0.90;99.90;;;;;;2082049;28;20187;-61